Time;durP1;ratioP1;P1;durP2;ratioP2;P2;SDS_P1;SDS_P2;PMS_P1;PMS_P2;Temp;Humidity;BMP_temperature;BMP_pressure;BME280_temperature;BME280_humidity;BME280_pressure;Samples;Min_cycle;Max_cycle;Signal;HPM_P1;HPM_P2
2024/03/10 00:00:14;;;;;;;43.25;22.52;;;204.80;2252.80;;;;;;4996840;28;20057;-68
2024/03/10 00:02:43;;;;;;;42.38;21.65;;;204.80;2252.80;;;;;;4999786;28;20041;-71
2024/03/10 00:05:12;;;;;;;46.10;23.63;;;204.90;2252.80;;;;;;5008200;28;20034;-70
2024/03/10 00:07:39;;;;;;;45.75;22.58;;;204.90;2252.80;;;;;;5010214;28;20050;-71
2024/03/10 00:10:05;;;;;;;44.03;22.90;;;204.90;2252.80;;;;;;5008935;28;20030;-69
2024/03/10 00:12:31;;;;;;;44.72;23.00;;;205.00;2252.80;;;;;;5004775;28;20044;-69
2024/03/10 00:14:57;;;;;;;42.13;21.95;;;204.90;2252.80;;;;;;5015726;28;20489;-70
2024/03/10 00:17:22;;;;;;;45.45;22.83;;;204.90;2252.80;;;;;;5004545;28;20109;-71
2024/03/10 00:19:48;;;;;;;45.17;22.98;;;205.00;2252.80;;;;;;5003568;28;20057;-70
2024/03/10 00:22:14;;;;;;;45.97;23.40;;;204.90;2252.80;;;;;;5002506;28;20030;-69
2024/03/10 00:24:42;;;;;;;42.53;22.42;;;205.00;2252.80;;;;;;5003581;28;20092;-71
2024/03/10 00:27:07;;;;;;;43.22;22.45;;;205.00;2252.80;;;;;;5000330;28;20027;-70
2024/03/10 00:29:34;;;;;;;45.60;22.73;;;205.10;2252.80;;;;;;5001963;28;20049;-69
2024/03/10 00:32:00;;;;;;;40.67;21.92;;;205.10;2252.80;;;;;;5008104;28;20026;-71
2024/03/10 00:34:25;;;;;;;40.45;22.65;;;205.10;2252.80;;;;;;5009583;28;20404;-73
2024/03/10 00:36:51;;;;;;;42.65;23.10;;;205.10;2252.80;;;;;;5010508;28;20477;-71
2024/03/10 00:39:17;;;;;;;39.78;22.15;;;205.10;2252.80;;;;;;5001852;28;20053;-70
2024/03/10 00:41:42;;;;;;;42.15;22.63;;;205.10;2252.80;;;;;;5010212;28;20030;-72
2024/03/10 00:44:08;;;;;;;43.10;22.65;;;205.10;2252.80;;;;;;5027842;28;20041;-70
2024/03/10 00:46:34;;;;;;;44.20;22.48;;;205.10;2252.80;;;;;;5029749;28;20164;-71
2024/03/10 00:49:00;;;;;;;42.05;22.10;;;205.10;2252.80;;;;;;5015838;28;20088;-70
2024/03/10 00:51:25;;;;;;;45.33;24.10;;;205.10;2252.80;;;;;;5001901;28;20045;-71
2024/03/10 00:53:51;;;;;;;44.05;23.63;;;205.10;2252.80;;;;;;4990318;28;20026;-71
2024/03/10 00:56:19;;;;;;;45.72;23.27;;;205.10;2252.80;;;;;;5004410;28;20053;-70
2024/03/10 00:58:45;;;;;;;43.15;22.17;;;205.10;2252.80;;;;;;5002615;28;20477;-70
2024/03/10 01:01:11;;;;;;;44.20;23.13;;;205.20;2252.80;;;;;;5001068;28;20029;-69
2024/03/10 01:03:40;;;;;;;40.20;21.88;;;205.20;2252.80;;;;;;5012836;28;20057;-71
2024/03/10 01:06:06;;;;;;;41.72;22.17;;;205.30;2252.80;;;;;;5009121;28;20041;-71
2024/03/10 01:08:32;;;;;;;40.72;21.52;;;205.40;2252.80;;;;;;5013087;28;20046;-72
2024/03/10 01:10:58;;;;;;;41.13;22.02;;;205.50;2252.80;;;;;;5013351;28;20461;-72
2024/03/10 01:13:23;;;;;;;41.28;23.45;;;205.50;2252.80;;;;;;5013370;28;20022;-71
2024/03/10 01:15:50;;;;;;;43.00;22.42;;;205.60;2252.80;;;;;;5013072;28;20070;-71
2024/03/10 01:18:15;;;;;;;45.38;23.33;;;205.60;2252.80;;;;;;5005160;28;20469;-69
2024/03/10 01:20:41;;;;;;;42.58;22.92;;;205.40;2252.80;;;;;;5005463;28;20061;-71
2024/03/10 01:23:07;;;;;;;46.65;25.83;;;205.30;2252.80;;;;;;5010817;28;20026;-71
2024/03/10 01:25:32;;;;;;;43.78;23.25;;;205.40;2252.80;;;;;;5011523;28;20041;-70
2024/03/10 01:27:59;;;;;;;44.65;23.02;;;205.30;2252.80;;;;;;5013113;28;20032;-71
2024/03/10 01:30:24;;;;;;;47.35;24.15;;;205.20;2252.80;;;;;;5012357;28;20052;-70
2024/03/10 01:32:50;;;;;;;44.20;23.77;;;205.10;2252.80;;;;;;5011199;28;20097;-70
2024/03/10 01:35:16;;;;;;;45.05;23.67;;;205.10;2252.80;;;;;;5012790;28;20057;-70
2024/03/10 01:37:41;;;;;;;43.05;22.92;;;205.10;2252.80;;;;;;5007510;28;20354;-70
2024/03/10 01:40:09;;;;;;;44.40;23.10;;;205.10;2252.80;;;;;;5002469;28;20034;-69
2024/03/10 01:42:35;;;;;;;44.13;22.80;;;205.20;2252.80;;;;;;5009570;28;20084;-70
2024/03/10 01:45:03;;;;;;;45.10;23.70;;;205.10;2252.80;;;;;;4993100;28;20050;-71
2024/03/10 01:47:29;;;;;;;45.92;23.95;;;205.10;2252.80;;;;;;4992904;28;20057;-69
2024/03/10 01:49:54;;;;;;;43.50;23.58;;;205.10;2252.80;;;;;;5006948;28;20076;-70
2024/03/10 01:52:21;;;;;;;49.53;25.35;;;205.00;2252.80;;;;;;5010850;28;20094;-70
2024/03/10 01:54:47;;;;;;;45.95;24.60;;;204.90;2252.80;;;;;;5012680;28;20059;-71
2024/03/10 01:57:14;;;;;;;49.67;24.90;;;204.90;2252.80;;;;;;5003174;28;20096;-69
2024/03/10 01:59:40;;;;;;;47.45;24.35;;;204.90;2252.80;;;;;;5008394;28;20033;-71
2024/03/10 02:02:06;;;;;;;47.80;24.20;;;180.10;2252.80;;;;;;5012020;28;20121;-70
2024/03/10 02:04:32;;;;;;;46.38;24.83;;;204.80;2252.80;;;;;;4992270;28;20106;-71
2024/03/10 02:06:59;;;;;;;49.00;24.20;;;204.90;2252.80;;;;;;4991442;28;20416;-71
2024/03/10 02:09:25;;;;;;;46.90;24.63;;;204.80;2252.80;;;;;;4994004;28;20043;-71
2024/03/10 02:11:51;;;;;;;49.58;25.00;;;204.80;2252.80;;;;;;5034307;28;20048;-72
2024/03/10 02:14:16;;;;;;;43.80;23.30;;;204.90;2252.80;;;;;;5034265;28;20026;-71
2024/03/10 02:16:43;;;;;;;52.05;25.50;;;180.10;2252.80;;;;;;5002880;28;20045;-73
2024/03/10 02:19:08;;;;;;;46.58;24.17;;;180.00;2252.80;;;;;;5014153;28;20037;-72
2024/03/10 02:21:34;;;;;;;48.20;24.15;;;204.80;2252.80;;;;;;5014093;28;20385;-71
2024/03/10 02:24:27;;;;;;;45.20;23.98;;;204.90;2252.80;;;;;;5013686;28;20361;-70
2024/03/10 02:26:53;;;;;;;45.78;23.60;;;204.90;2252.80;;;;;;5013842;28;20021;-72
2024/03/10 02:29:21;;;;;;;43.97;24.23;;;205.00;2252.80;;;;;;5011505;28;20056;-71
2024/03/10 02:48:23;;;;;;;46.97;24.85;;;180.10;2252.80;;;;;;4972230;28;20046;-72
2024/03/10 02:50:49;;;;;;;46.83;25.30;;;180.00;2252.80;;;;;;4967872;28;20045;-72
2024/03/10 02:53:15;;;;;;;46.60;23.88;;;180.00;2252.80;;;;;;4966942;28;20120;-73
2024/03/10 02:55:41;;;;;;;45.53;24.05;;;180.00;2252.80;;;;;;4973503;28;20046;-71
2024/03/10 02:58:07;;;;;;;49.90;24.73;;;180.00;2252.80;;;;;;4970939;28;20134;-72
2024/03/10 03:00:34;;;;;;;47.65;24.77;;;179.90;2252.80;;;;;;4972981;28;20034;-72
2024/03/10 03:03:01;;;;;;;48.67;24.92;;;179.90;2252.80;;;;;;4972682;28;20022;-70
2024/03/10 03:05:27;;;;;;;48.35;25.38;;;179.90;2252.80;;;;;;4990926;28;20038;-73
2024/03/10 03:08:00;;;;;;;50.92;24.58;;;179.90;2252.80;;;;;;4995004;28;20050;-72
2024/03/10 03:10:26;;;;;;;46.17;24.38;;;179.90;2252.80;;;;;;4985891;28;20046;-72
2024/03/10 03:12:53;;;;;;;50.10;25.20;;;180.00;2252.80;;;;;;4989862;28;20387;-71
2024/03/10 03:15:19;;;;;;;48.10;25.25;;;179.90;2252.80;;;;;;4992042;28;20057;-71
2024/03/10 03:17:45;;;;;;;50.63;25.30;;;179.90;2252.80;;;;;;4991740;28;20540;-71
2024/03/10 03:20:21;;;;;;;45.42;23.73;;;179.90;2252.80;;;;;;4992327;28;20026;-72
2024/03/10 03:22:48;;;;;;;48.25;24.75;;;179.90;2252.80;;;;;;4991453;28;20453;-69
2024/03/10 03:25:17;;;;;;;48.45;25.00;;;179.90;2252.80;;;;;;5006754;28;20049;-70
2024/03/10 03:27:47;;;;;;;47.08;24.02;;;179.90;2252.80;;;;;;5052322;28;20025;-70
2024/03/10 03:30:16;;;;;;;47.60;23.48;;;180.00;2252.80;;;;;;5038460;28;20033;-72
2024/03/10 03:32:42;;;;;;;45.63;23.30;;;180.10;2252.80;;;;;;5035312;28;20104;-72
2024/03/10 03:35:10;;;;;;;46.72;23.95;;;180.10;2252.80;;;;;;5052659;28;20108;-73
2024/03/10 03:37:36;;;;;;;50.05;25.23;;;180.10;2252.80;;;;;;5034758;28;20480;-69
2024/03/10 03:40:06;;;;;;;47.50;24.58;;;180.10;2252.80;;;;;;5053076;28;20025;-70
2024/03/10 03:42:37;;;;;;;46.00;23.95;;;180.10;2252.80;;;;;;5052390;28;20491;-70
2024/03/10 03:45:07;;;;;;;46.42;23.83;;;180.10;2252.80;;;;;;5053580;28;20041;-69
2024/03/10 03:47:33;;;;;;;48.50;24.33;;;180.10;2252.80;;;;;;5053050;28;20025;-68
2024/03/10 03:49:59;;;;;;;45.95;24.00;;;180.10;2252.80;;;;;;5029127;28;20041;-69
2024/03/10 03:52:25;;;;;;;46.92;24.45;;;204.80;2252.80;;;;;;5015533;28;20037;-69
2024/03/10 03:54:53;;;;;;;47.35;23.92;;;204.80;2252.80;;;;;;5013660;28;20041;-68
2024/03/10 03:57:20;;;;;;;45.78;24.55;;;180.10;2252.80;;;;;;5021026;28;20025;-70
2024/03/10 03:59:46;;;;;;;45.33;24.08;;;204.80;2252.80;;;;;;5053592;28;20052;-71
2024/03/10 04:02:15;;;;;;;45.63;24.35;;;204.80;2252.80;;;;;;5053102;28;20430;-70
2024/03/10 04:04:41;;;;;;;46.63;23.85;;;204.90;2252.80;;;;;;5052933;28;20036;-70
2024/03/10 04:07:07;;;;;;;47.92;23.88;;;205.00;2252.80;;;;;;5046986;28;20045;-70
2024/03/10 04:09:34;;;;;;;48.55;24.67;;;205.10;2252.80;;;;;;5028799;28;20037;-70
2024/03/10 04:11:59;;;;;;;48.00;24.13;;;205.10;2252.80;;;;;;5033033;28;20065;-70
2024/03/10 04:14:26;;;;;;;47.65;24.65;;;205.10;2252.80;;;;;;5036772;28;20064;-69
2024/03/10 04:16:52;;;;;;;46.75;24.08;;;205.00;2252.80;;;;;;5053264;28;20764;-68
2024/03/10 04:19:18;;;;;;;46.80;24.75;;;204.90;2252.80;;;;;;5052311;28;20033;-73
2024/03/10 04:21:44;;;;;;;44.78;23.73;;;205.00;2252.80;;;;;;5052840;28;20025;-71
2024/03/10 04:24:10;;;;;;;46.20;23.45;;;204.90;2252.80;;;;;;5052710;28;20075;-70
2024/03/10 04:26:41;;;;;;;45.97;23.73;;;204.80;2252.80;;;;;;5043900;28;20034;-68
2024/03/10 04:29:08;;;;;;;46.30;23.95;;;204.80;2252.80;;;;;;5026595;28;20034;-71
2024/03/10 04:31:34;;;;;;;41.90;23.35;;;204.80;2252.80;;;;;;5036838;28;20071;-73
2024/03/10 04:34:00;;;;;;;45.20;23.23;;;204.90;2252.80;;;;;;5039581;28;20028;-69
2024/03/10 04:36:28;;;;;;;45.05;23.40;;;205.00;2252.80;;;;;;5056741;28;20025;-70
2024/03/10 04:38:55;;;;;;;45.10;23.48;;;205.10;2252.80;;;;;;5055941;28;20025;-68
2024/03/10 04:41:22;;;;;;;40.72;22.38;;;205.30;2252.80;;;;;;5056327;28;20381;-68
2024/03/10 04:43:48;;;;;;;44.50;23.73;;;205.30;2252.80;;;;;;5055929;28;20060;-70
2024/03/10 04:46:14;;;;;;;43.42;22.58;;;205.30;2252.80;;;;;;5056834;28;20114;-70
2024/03/10 04:48:42;;;;;;;40.70;22.67;;;205.30;2252.80;;;;;;5034836;28;20025;-73
2024/03/10 04:51:08;;;;;;;41.47;23.05;;;205.40;2252.80;;;;;;5019220;28;20030;-70
2024/03/10 04:53:35;;;;;;;42.22;22.63;;;205.40;2252.80;;;;;;5018684;28;20029;-68
2024/03/10 04:56:01;;;;;;;42.63;22.65;;;205.40;2252.80;;;;;;5036165;28;20167;-70
2024/03/10 04:58:27;;;;;;;43.72;22.48;;;205.40;2252.80;;;;;;5047455;28;20036;-70
2024/03/10 05:00:56;;;;;;;44.08;23.25;;;205.30;2252.80;;;;;;5055854;28;20029;-68
2024/03/10 05:03:22;;;;;;;43.88;23.52;;;205.30;2252.80;;;;;;5056318;28;20025;-69
2024/03/10 05:05:48;;;;;;;46.15;25.20;;;205.30;2252.80;;;;;;5056169;28;20035;-70
2024/03/10 05:08:15;;;;;;;44.75;24.83;;;205.30;2252.80;;;;;;5055970;28;20063;-70
2024/03/10 05:10:41;;;;;;;49.00;24.52;;;205.30;2252.80;;;;;;5047908;28;20033;-73
2024/03/10 05:13:06;;;;;;;46.35;24.02;;;205.10;2252.80;;;;;;5028850;28;20432;-72
2024/03/10 05:15:32;;;;;;;46.28;24.25;;;205.10;2252.80;;;;;;5016113;28;20121;-70
2024/03/10 05:17:57;;;;;;;42.80;23.83;;;205.10;2252.80;;;;;;5029960;28;20029;-70
2024/03/10 05:20:27;;;;;;;43.67;23.83;;;205.10;2252.80;;;;;;5055431;28;20044;-70
2024/03/10 05:22:53;;;;;;;46.92;23.38;;;205.10;2252.80;;;;;;5037180;28;20025;-69
2024/03/10 05:25:18;;;;;;;43.83;23.75;;;205.10;2252.80;;;;;;5054799;28;20102;-69
2024/03/10 05:27:45;;;;;;;44.58;23.40;;;205.10;2252.80;;;;;;5055096;28;20090;-71
2024/03/10 05:30:15;;;;;;;46.38;23.88;;;205.10;2252.80;;;;;;5049723;28;20036;-69
2024/03/10 05:32:44;;;;;;;43.83;22.88;;;205.20;2252.80;;;;;;5021202;28;20018;-69
2024/03/10 05:35:09;;;;;;;43.35;23.83;;;205.10;2252.80;;;;;;5031854;28;20084;-71
2024/03/10 05:37:36;;;;;;;43.17;22.05;;;204.90;2252.80;;;;;;5038562;28;20013;-72
2024/03/10 05:40:05;;;;;;;42.58;22.67;;;204.80;2252.80;;;;;;5055063;28;20484;-72
2024/03/10 05:42:30;;;;;;;42.13;22.33;;;204.80;2252.80;;;;;;5055493;28;20021;-73
2024/03/10 05:44:58;;;;;;;44.40;23.33;;;180.10;2252.80;;;;;;5055214;28;20029;-71
2024/03/10 05:47:26;;;;;;;44.03;23.30;;;180.00;2252.80;;;;;;5054344;28;20025;-73
2024/03/10 05:49:54;;;;;;;44.47;23.00;;;180.00;2252.80;;;;;;5054661;28;20037;-73
2024/03/10 05:52:20;;;;;;;42.75;23.08;;;180.00;2252.80;;;;;;5036238;28;20179;-70
2024/03/10 05:54:47;;;;;;;42.13;23.00;;;180.00;2252.80;;;;;;5027144;28;20081;-70
2024/03/10 05:57:13;;;;;;;40.88;21.90;;;180.10;2252.80;;;;;;5035216;28;20067;-70
2024/03/10 05:59:42;;;;;;;37.92;20.35;;;204.80;2252.80;;;;;;5053556;28;20104;-69
2024/03/10 06:02:13;;;;;;;40.55;22.20;;;204.80;2252.80;;;;;;5054313;28;20163;-70
2024/03/10 06:04:43;;;;;;;39.80;20.67;;;204.90;2252.80;;;;;;5055423;28;20017;-69
2024/03/10 06:07:10;;;;;;;38.33;20.13;;;205.00;2252.80;;;;;;5054640;28;20128;-71
2024/03/10 06:09:36;;;;;;;35.03;20.15;;;205.10;2252.80;;;;;;5054274;28;20087;-69
2024/03/10 06:12:03;;;;;;;39.33;21.95;;;205.40;2252.80;;;;;;5038886;28;20848;-71
2024/03/10 06:14:30;;;;;;;39.25;21.45;;;205.40;2252.80;;;;;;5023591;28;20855;-69
2024/03/10 06:16:57;;;;;;;37.58;20.92;;;205.40;2252.80;;;;;;5015504;28;20050;-70
2024/03/10 06:27:35;;;;;;;33.42;16.92;;;205.60;2252.80;;;;;;5054173;28;20059;-72
2024/03/10 06:30:02;;;;;;;32.03;18.83;;;205.70;2252.80;;;;;;5054065;28;20097;-70
2024/03/10 06:32:30;;;;;;;37.60;20.17;;;230.40;2252.80;;;;;;5043607;28;20026;-72
2024/03/10 06:34:57;;;;;;;35.28;18.90;;;;;;;;;;5023053;28;20052;-71
2024/03/10 06:37:25;;;;;;;35.65;18.65;;;230.90;1920.00;;;;;;5015719;28;20022;-72
2024/03/10 06:39:50;;;;;;;31.63;17.73;;;230.90;2252.80;;;;;;5051427;28;20357;-71
2024/03/10 06:42:17;;;;;;;31.80;18.15;;;230.80;2252.80;;;;;;5054242;28;20073;-71
2024/03/10 06:44:46;;;;;;;31.10;17.50;;;230.90;2252.80;;;;;;5053789;28;20025;-72
2024/03/10 06:47:11;;;;;;;29.02;16.85;;;231.20;2252.80;;;;;;5053771;28;20029;-72
2024/03/10 06:49:37;;;;;;;30.63;18.02;;;;;;;;;;5053281;28;20044;-68
2024/03/10 06:52:06;;;;;;;30.02;16.25;;;282.30;1945.60;;;;;;5052888;28;20472;-71
2024/03/10 06:54:32;;;;;;;35.72;20.73;;;282.00;2278.40;;;;;;5030275;28;22815;-70
2024/03/10 06:56:57;;;;;;;34.38;19.10;;;256.80;2252.80;;;;;;5031804;28;20155;-69
2024/03/10 06:59:25;;;;;;;29.25;17.02;;;256.80;2252.80;;;;;;5050365;28;20123;-72
2024/03/10 07:01:55;;;;;;;30.55;17.95;;;256.80;1894.40;;;;;;5053857;28;20155;-70
2024/03/10 07:04:23;;;;;;;28.63;17.25;;;;;;;;;;5053659;28;20060;-71
2024/03/10 07:06:50;;;;;;;25.48;15.13;;;308.10;2304.00;;;;;;5053499;28;20041;-68
2024/03/10 07:09:16;;;;;;;24.48;15.18;;;307.50;2304.00;;;;;;5053142;28;20047;-74
2024/03/10 07:11:42;;;;;;;25.88;14.32;;;282.40;2278.40;;;;;;5053170;28;20372;-72
2024/03/10 07:14:08;;;;;;;26.40;14.60;;;282.00;2278.40;;;;;;5029706;28;20026;-73
2024/03/10 07:16:35;;;;;;;26.90;13.55;;;281.80;2278.40;;;;;;5031393;28;20026;-72
2024/03/10 07:19:01;;;;;;;26.83;14.85;;;281.80;2048.00;;;;;;5046538;28;20025;-71
2024/03/10 07:21:27;;;;;;;25.45;16.38;;;281.70;1971.20;;;;;;5053319;28;20498;-71
2024/03/10 07:23:53;;;;;;;24.70;14.32;;;281.90;2278.40;;;;;;5053379;28;20083;-73
2024/03/10 07:26:19;;;;;;;26.08;16.75;;;281.90;2278.40;;;;;;5053021;28;20029;-73
2024/03/10 07:28:45;;;;;;;23.23;15.02;;;282.10;2278.40;;;;;;5052645;28;20021;-73
2024/03/10 07:31:11;;;;;;;34.83;20.65;;;282.00;2278.40;;;;;;5048845;28;20029;-72
2024/03/10 07:33:37;;;;;;;43.45;28.20;;;282.00;1996.80;;;;;;5027890;28;20075;-73
2024/03/10 07:36:04;;;;;;;24.10;14.85;;;282.10;2278.40;;;;;;5032040;28;20025;-73
2024/03/10 07:38:36;;;;;;;17.48;11.20;;;307.70;2304.00;;;;;;5034952;28;20033;-71
2024/03/10 07:41:01;;;;;;;18.27;10.73;;;384.80;2329.60;;;;;;5032914;28;20376;-71
2024/03/10 07:43:28;;;;;;;40.38;24.42;;;384.10;2329.60;;;;;;5033181;28;20030;-74
2024/03/10 07:45:54;;;;;;;48.50;25.95;;;358.40;2329.60;;;;;;5033266;28;20094;-73
2024/03/10 07:48:21;;;;;;;15.57;9.57;;;333.10;2329.60;;;;;;5035330;28;20033;-73
2024/03/10 07:50:47;;;;;;;43.95;25.58;;;308.10;2304.00;;;;;;5037902;28;20041;-73
2024/03/10 07:53:13;;;;;;;15.05;9.50;;;359.30;2329.60;;;;;;5013490;28;20025;-71
2024/03/10 07:55:38;;;;;;;20.67;14.57;;;333.70;2329.60;;;;;;5035314;28;20128;-72
2024/03/10 07:58:07;;;;;;;15.45;9.57;;;333.30;2329.60;;;;;;5037764;28;20114;-71
2024/03/10 08:00:33;;;;;;;14.00;8.43;;;333.40;2329.60;;;;;;5052382;28;20033;-74
2024/03/10 08:02:59;;;;;;;15.80;9.02;;;333.30;2329.60;;;;;;5053433;28;20641;-73
2024/03/10 08:05:29;;;;;;;17.90;11.88;;;333.30;2329.60;;;;;;5056972;28;20044;-73
2024/03/10 08:07:55;;;;;;;22.48;11.70;;;333.30;2329.60;;;;;;5056635;28;20045;-74
2024/03/10 08:10:21;;;;;;;16.92;11.80;;;333.20;2329.60;;;;;;5053040;28;20059;-74
2024/03/10 08:12:48;;;;;;;14.63;9.35;;;333.20;2329.60;;;;;;5034010;28;20026;-74
2024/03/10 08:15:16;;;;;;;14.52;10.00;;;333.20;2329.60;;;;;;5035007;28;20145;-73
2024/03/10 08:17:42;;;;;;;19.40;12.52;;;333.30;2329.60;;;;;;5037133;28;20139;-74
2024/03/10 08:20:13;;;;;;;18.20;11.50;;;333.70;2329.60;;;;;;5036720;28;20038;-75
2024/03/10 08:22:39;;;;;;;26.50;16.52;;;359.00;2329.60;;;;;;5050130;28;20060;-72
2024/03/10 08:25:05;;;;;;;59.80;36.45;;;358.90;2329.60;;;;;;5055551;28;20500;-74
2024/03/10 08:27:34;;;;;;;24.27;14.60;;;358.90;2329.60;;;;;;5056505;28;20028;-72
2024/03/10 08:30:01;;;;;;;20.73;12.85;;;358.70;2329.60;;;;;;5056491;28;20044;-71
2024/03/10 08:32:27;;;;;;;18.77;10.50;;;358.80;2329.60;;;;;;5036994;28;20025;-73
2024/03/10 08:34:56;;;;;;;17.98;11.05;;;358.90;2329.60;;;;;;5048778;28;20056;-73
2024/03/10 08:37:22;;;;;;;16.77;10.20;;;359.00;2329.60;;;;;;5056131;28;20057;-73
2024/03/10 08:39:48;;;;;;;17.02;10.85;;;359.00;2329.60;;;;;;5056276;28;20047;-74
2024/03/10 08:42:20;;;;;;;11.75;6.93;;;359.20;2329.60;;;;;;5055777;28;20036;-71
2024/03/10 08:44:46;;;;;;;9.82;5.40;;;359.30;2329.60;;;;;;5055586;28;20071;-73
2024/03/10 08:47:12;;;;;;;9.70;6.10;;;384.00;2329.60;;;;;;5056216;28;20021;-75
2024/03/10 08:49:38;;;;;;;7.50;3.95;;;384.10;2329.60;;;;;;5055452;28;20036;-72
2024/03/10 08:52:07;;;;;;;9.48;5.00;;;384.10;2329.60;;;;;;5040799;28;20040;-72
2024/03/10 08:54:39;;;;;;;7.68;4.72;;;384.10;2329.60;;;;;;5034982;28;20341;-72
2024/03/10 08:57:05;;;;;;;9.40;7.47;;;384.30;2329.60;;;;;;5038909;28;20036;-72
2024/03/10 08:59:31;;;;;;;10.43;7.63;;;384.30;2329.60;;;;;;5036117;28;20029;-72
2024/03/10 09:01:57;;;;;;;12.80;7.28;;;384.40;2329.60;;;;;;5036227;28;20401;-73
2024/03/10 09:04:23;;;;;;;9.35;5.43;;;384.50;2329.60;;;;;;5042891;28;20024;-72
2024/03/10 09:06:50;;;;;;;7.40;3.15;;;384.40;2329.60;;;;;;5055505;28;20098;-73
2024/03/10 09:09:18;;;;;;;12.15;7.18;;;384.50;2329.60;;;;;;5055242;28;20627;-72
2024/03/10 09:11:45;;;;;;;126.80;57.00;;;384.50;2329.60;;;;;;5055608;28;20083;-71
2024/03/10 09:14:11;;;;;;;52.22;29.15;;;384.50;2329.60;;;;;;5041711;28;20032;-72
2024/03/10 09:16:36;;;;;;;27.13;15.10;;;384.50;2329.60;;;;;;5037353;28;20025;-73
2024/03/10 09:19:05;;;;;;;58.75;32.75;;;384.50;2329.60;;;;;;5040283;28;20032;-72
2024/03/10 09:21:33;;;;;;;37.80;21.83;;;384.50;2329.60;;;;;;5054236;28;20431;-73
2024/03/10 09:23:59;;;;;;;18.63;12.60;;;384.80;2329.60;;;;;;5055393;28;20467;-74
2024/03/10 09:26:25;;;;;;;16.33;10.82;;;384.60;2329.60;;;;;;5054429;28;20033;-74
2024/03/10 09:28:51;;;;;;;7.63;6.15;;;384.70;2329.60;;;;;;5053018;28;20379;-73
2024/03/10 09:31:17;;;;;;;8.23;5.95;;;;;;;;;;5055111;28;20029;-72
2024/03/10 09:33:44;;;;;;;8.90;5.35;;;409.90;2355.20;;;;;;5038902;28;20108;-74
2024/03/10 09:36:15;;;;;;;8.50;5.85;;;409.60;2355.20;;;;;;5032824;28;20108;-73
2024/03/10 09:38:44;;;;;;;5.15;3.20;;;409.70;2355.20;;;;;;5025191;28;20017;-76
2024/03/10 09:41:10;;;;;;;13.57;8.52;;;;;;;;;;5051624;28;20093;-74
2024/03/10 09:43:40;;;;;;;8.85;5.30;;;410.20;2355.20;;;;;;5054612;28;20071;-72
2024/03/10 09:46:13;;;;;;;12.40;6.35;;;410.40;2355.20;;;;;;5055360;28;20018;-72
2024/03/10 09:48:42;;;;;;;6.60;4.50;;;435.40;2355.20;;;;;;5054228;28;20036;-73
2024/03/10 09:51:22;;;;;;;4.50;2.88;;;435.70;2355.20;;;;;;5038037;28;20049;-75
2024/03/10 09:53:50;;;;;;;6.15;3.30;;;435.70;2355.20;;;;;;5025014;28;20045;-75
2024/03/10 09:56:16;;;;;;;7.15;2.47;;;435.50;2355.20;;;;;;5033536;28;20052;-72
2024/03/10 09:58:42;;;;;;;8.30;4.15;;;435.50;2355.20;;;;;;5029705;28;20460;-73
2024/03/10 10:01:13;;;;;;;9.27;6.13;;;435.50;2355.20;;;;;;5049163;28;20044;-73
2024/03/10 10:03:44;;;;;;;10.82;6.78;;;435.80;2355.20;;;;;;5055097;28;20032;-74
2024/03/10 10:06:13;;;;;;;10.90;6.15;;;435.80;2355.20;;;;;;5054896;28;20025;-72
2024/03/10 10:08:39;;;;;;;9.05;4.88;;;460.80;2380.80;;;;;;5054313;28;20128;-73
2024/03/10 10:11:08;;;;;;;12.32;6.28;;;436.00;2355.20;;;;;;5054155;28;20445;-74
2024/03/10 10:13:35;;;;;;;12.68;6.95;;;460.80;2380.80;;;;;;5054407;28;20029;-75
2024/03/10 10:16:08;;;;;;;8.07;5.43;;;460.80;2380.80;;;;;;5034216;28;20053;-73
2024/03/10 10:18:36;;;;;;;9.50;4.93;;;461.10;2380.80;;;;;;5021109;28;20013;-71
2024/03/10 10:21:07;;;;;;;7.60;3.40;;;460.80;2380.80;;;;;;5046921;28;20033;-72
2024/03/10 10:23:35;;;;;;;7.88;2.53;;;436.00;2355.20;;;;;;5036994;28;20104;-74
2024/03/10 10:26:12;;;;;;;9.13;4.47;;;435.80;2355.20;;;;;;5050604;28;20021;-74
2024/03/10 10:28:41;;;;;;;16.02;8.98;;;435.70;2355.20;;;;;;5028626;28;20232;-72
2024/03/10 10:31:15;;;;;;;10.25;6.57;;;435.70;2355.20;;;;;;5032246;28;20038;-70
2024/03/10 10:33:45;;;;;;;11.38;6.53;;;435.70;2355.20;;;;;;5033934;28;20136;-74
2024/03/10 10:36:14;;;;;;;10.80;6.05;;;435.70;2355.20;;;;;;5021747;28;20033;-73
2024/03/10 10:38:44;;;;;;;22.75;10.70;;;;;;;;;;5020481;28;20026;-76
2024/03/10 10:41:11;;;;;;;16.23;6.47;;;;;;;;;;5021724;28;20079;-75
2024/03/10 10:43:38;;;;;;;17.02;8.93;;;;;;;;;;5029919;28;20032;-76
2024/03/10 10:46:05;;;;;;;15.40;8.10;;;;;;;;;;5034307;28;20899;-74
2024/03/10 10:48:35;;;;;;;14.15;7.43;;;;;;;;;;5034113;28;20029;-75
2024/03/10 10:51:01;;;;;;;18.17;9.00;;;;;;;;;;5033988;28;20120;-73
2024/03/10 10:53:27;;;;;;;13.38;7.22;;;460.80;2380.80;;;;;;5034161;28;20075;-72
2024/03/10 10:55:54;;;;;;;46.80;18.10;;;436.00;2355.20;;;;;;5020667;28;20036;-73
2024/03/10 10:58:22;;;;;;;33.42;15.25;;;436.00;2355.20;;;;;;5027747;28;20037;-75
2024/03/10 11:00:49;;;;;;;46.20;22.88;;;436.00;2355.20;;;;;;5038476;28;20028;-74
2024/03/10 11:03:17;;;;;;;14.80;8.68;;;436.00;2355.20;;;;;;5053794;28;20071;-73
2024/03/10 11:06:06;;;;;;;32.17;16.05;;;436.10;2355.20;;;;;;5053527;28;20418;-75
2024/03/10 11:08:33;;;;;;;19.38;8.52;;;436.00;2355.20;;;;;;5037506;28;20123;-73
2024/03/10 11:11:00;;;;;;;11.27;6.10;;;436.10;2355.20;;;;;;5012428;28;20050;-74
2024/03/10 11:13:27;;;;;;;15.10;8.45;;;436.00;2355.20;;;;;;5029525;28;20041;-73
2024/03/10 11:16:09;;;;;;;16.88;8.60;;;436.00;2355.20;;;;;;5022899;28;20026;-73
2024/03/10 11:18:38;;;;;;;25.90;14.52;;;436.00;2355.20;;;;;;5043013;28;20049;-73
2024/03/10 11:21:19;;;;;;;19.30;11.30;;;436.00;2355.20;;;;;;5034043;28;20056;-73
2024/03/10 11:23:48;;;;;;;13.60;8.15;;;436.10;2355.20;;;;;;5032714;28;20029;-75
2024/03/10 11:26:20;;;;;;;14.45;8.95;;;460.80;2380.80;;;;;;5042393;28;20025;-72
2024/03/10 11:28:57;;;;;;;22.45;15.30;;;460.80;2380.80;;;;;;5053342;28;20017;-73
2024/03/10 11:31:23;;;;;;;15.55;8.82;;;460.80;2380.80;;;;;;5033431;28;20072;-74
2024/03/10 11:33:51;;;;;;;18.25;8.02;;;460.80;2380.80;;;;;;5035734;28;20033;-72
2024/03/10 11:36:18;;;;;;;13.18;6.55;;;460.90;2380.80;;;;;;5026805;28;20036;-75
2024/03/10 11:38:44;;;;;;;17.40;8.82;;;461.00;2380.80;;;;;;5015389;28;20047;-73
2024/03/10 11:41:13;;;;;;;22.13;10.73;;;461.10;2380.80;;;;;;5026353;28;20029;-74
2024/03/10 11:43:39;;;;;;;17.30;9.68;;;;;;;;;;5031277;28;20032;-75
2024/03/10 11:46:18;;;;;;;11.35;5.10;;;;;;;;;;5026647;28;20021;-75
2024/03/10 11:48:48;;;;;;;24.52;11.80;;;;;;;;;;5031140;28;20018;-74
2024/03/10 11:51:15;;;;;;;29.40;14.38;;;;;;;;;;5031644;28;20527;-76
2024/03/10 11:53:41;;;;;;;19.20;9.93;;;;;;;;;;5027542;28;20116;-73
2024/03/10 11:56:07;;;;;;;18.90;10.15;;;;;;;;;;5030696;28;20057;-74
2024/03/10 11:58:34;;;;;;;13.25;5.65;;;;;;;;;;5027234;28;20033;-73
2024/03/10 12:01:08;;;;;;;16.10;7.05;;;;;;;;;;5012320;28;20026;-71
2024/03/10 12:03:38;;;;;;;12.13;6.27;;;;;;;;;;5013178;28;20427;-73
2024/03/10 12:06:05;;;;;;;17.35;6.75;;;;;;;;;;5015595;28;20431;-72
2024/03/10 12:08:37;;;;;;;24.92;11.93;;;;;;;;;;5029550;28;20053;-71
2024/03/10 12:11:06;;;;;;;16.40;8.05;;;;;;;;;;5038807;28;20100;-71
2024/03/10 12:13:32;;;;;;;11.05;5.30;;;;;;;;;;5036676;28;20055;-75
2024/03/10 12:15:59;;;;;;;14.50;6.50;;;;;;;;;;5024109;28;20033;-75
2024/03/10 12:18:26;;;;;;;12.68;6.90;;;;;;;;;;5033740;28;20101;-73
2024/03/10 12:20:53;;;;;;;10.57;4.80;;;;;;;;;;5030877;28;20025;-73
2024/03/10 12:23:23;;;;;;;18.40;8.55;;;;;;;;;;5030384;28;20500;-73
2024/03/10 12:25:51;;;;;;;8.98;3.85;;;;;;;;;;5026464;28;20101;-73
2024/03/10 12:28:18;;;;;;;8.82;4.70;;;;;;;;;;5029479;28;20018;-75
2024/03/10 12:30:45;;;;;;;16.70;7.03;;;;;;;;;;5029210;28;20037;-72
2024/03/10 12:33:11;;;;;;;12.70;5.55;;;;;;;;;;5025847;28;20029;-74
2024/03/10 12:35:38;;;;;;;30.63;15.50;;;;;;;;;;5021997;28;20306;-73
2024/03/10 12:38:06;;;;;;;18.55;9.45;;;;;;;;;;5029121;28;20112;-72
2024/03/10 12:40:33;;;;;;;16.38;7.43;;;;;;;;;;5027367;28;20033;-74